Time;durP1;ratioP1;P1;durP2;ratioP2;P2;SDS_P1;SDS_P2;PMS_P1;PMS_P2;Temp;Humidity;BMP_temperature;BMP_pressure;BME280_temperature;BME280_humidity;BME280_pressure;Samples;Min_cycle;Max_cycle;Signal;HPM_P1;HPM_P2
2021/04/13 00:01:21;;;;;;;13.07;6.13;;;;;;;7.75;66.21;95699.53;1732960;82;21156;-68
2021/04/13 00:04:03;;;;;;;12.37;6.87;;;;;;;7.64;67.83;95700.05;1719982;82;21154;-68
2021/04/13 00:06:41;;;;;;;11.30;5.83;;;;;;;7.58;66.33;95703.59;1716411;82;21254;-68
2021/04/13 00:09:31;;;;;;;10.93;6.17;;;;;;;7.54;66.99;95696.59;1731188;82;21141;-68
2021/04/13 00:12:09;;;;;;;11.03;6.40;;;;;;;7.42;66.76;95698.41;1732513;82;21187;-68
2021/04/13 00:14:50;;;;;;;12.90;6.20;;;;;;;7.33;67.01;95694.95;1700192;82;21167;-68
2021/04/13 00:17:22;;;;;;;8.97;6.40;;;;;;;7.25;68.66;95694.53;1733573;82;21325;-68
2021/04/13 00:30:43;;;;;;;11.03;5.97;;;;;;;6.95;69.48;95684.58;1685755;84;21180;-68
2021/04/13 00:33:15;;;;;;;12.97;6.57;;;;;;;6.98;68.62;95678.45;1669723;80;21181;-68
2021/04/13 00:35:59;;;;;;;13.22;6.70;;;;;;;7.02;67.95;95679.75;1694924;84;21173;-68
2021/04/13 00:38:33;;;;;;;12.50;7.15;;;;;;;7.05;67.40;95674.92;1698782;84;21173;-68
2021/04/13 00:41:20;;;;;;;12.53;6.47;;;;;;;7.06;67.17;95680.63;1756672;81;21170;-68
2021/04/13 00:44:09;;;;;;;11.63;6.57;;;;;;;7.00;67.60;95676.70;1743313;81;21135;-68
2021/04/13 00:46:48;;;;;;;10.37;5.33;;;;;;;6.94;67.59;95671.04;1718430;80;21157;-68
2021/04/13 00:49:21;;;;;;;15.93;9.10;;;;;;;6.92;68.74;95674.97;1755678;81;21164;-68
2021/04/13 00:51:59;;;;;;;13.80;6.50;;;;;;;6.78;68.79;95671.95;1761097;81;21186;-68
2021/04/13 00:54:43;;;;;;;10.10;6.23;;;;;;;6.67;71.28;95673.29;1699435;84;21221;-68
2021/04/13 00:57:16;;;;;;;;;;;;;;;6.71;69.55;95669.36;1771181;81;21323;-68
2021/04/13 00:59:46;;;;;;;10.70;5.62;;;;;;;6.83;69.84;95668.46;1768739;81;20461;-68
2021/04/13 01:02:21;;;;;;;13.13;6.23;;;;;;;6.90;70.00;95668.88;1750397;81;21183;-68
2021/04/13 01:05:15;;;;;;;10.63;6.20;;;;;;;6.89;70.25;95670.19;1755278;81;21168;-68
2021/04/13 01:07:52;;;;;;;11.27;6.13;;;;;;;6.99;69.40;95665.78;1759048;81;21580;-68
2021/04/13 01:10:33;;;;;;;12.33;6.40;;;;;;;7.09;69.44;95661.80;1702028;84;21181;-68
2021/04/13 01:13:12;;;;;;;10.93;5.33;;;;;;;7.15;68.88;95663.07;1764471;80;21166;-68
2021/04/13 01:15:45;;;;;;;11.07;6.10;;;;;;;7.20;69.44;95661.74;1701486;84;21130;-68
2021/04/13 01:18:20;;;;;;;9.93;5.87;;;;;;;7.26;68.71;95654.31;1701568;84;21219;-68
2021/04/13 01:21:30;;;;;;;11.20;7.33;;;;;;;7.32;68.38;95652.50;1693754;84;21145;-68
2021/04/13 01:24:06;;;;;;;12.00;7.13;;;;;;;7.33;68.27;95645.08;1708773;83;21611;-68
2021/04/13 01:26:34;;;;;;;8.20;5.30;;;;;;;7.32;68.00;95652.50;1759860;81;21138;-68
2021/04/13 01:29:04;;;;;;;7.93;5.17;;;;;;;7.25;68.66;95653.41;1768551;80;21172;-68
2021/04/13 01:31:45;;;;;;;12.23;5.83;;;;;;;7.12;68.98;95651.28;1682229;84;21213;-68
2021/04/13 01:34:41;;;;;;;10.30;5.83;;;;;;;7.15;68.24;95647.33;1696374;83;21152;-68
2021/04/13 01:37:52;;;;;;;12.03;8.03;;;;;;;7.14;68.55;95646.91;1711531;83;21210;-68
2021/04/13 01:40:18;;;;;;;8.90;5.53;;;;;;;7.20;68.45;95646.00;1702048;83;21606;-68
2021/04/13 01:42:48;;;;;;;12.57;6.00;;;;;;;7.11;68.40;95642.13;1708858;84;21687;-68
2021/04/13 01:45:24;;;;;;;9.97;5.37;;;;;;;7.07;68.27;95639.07;1683377;84;21177;-69
2021/04/13 01:47:55;;;;;;;10.57;6.37;;;;;;;7.03;70.25;95645.20;1766041;81;21150;-68
2021/04/13 01:50:31;;;;;;;12.70;6.07;;;;;;;7.04;69.00;95637.78;1764498;81;21683;-68
2021/04/13 01:53:07;;;;;;;9.37;5.77;;;;;;;7.11;68.73;95640.81;1693982;84;21163;-68
2021/04/13 01:55:38;;;;;;;11.73;6.37;;;;;;;7.20;68.27;95646.45;1694301;84;21142;-68
2021/04/13 01:58:38;;;;;;;11.07;5.17;;;;;;;7.22;68.10;95644.25;1692769;84;21195;-68
2021/04/13 02:01:31;;;;;;;9.30;5.20;;;;;;;7.20;69.75;95628.08;1690944;83;21173;-68
2021/04/13 02:04:08;;;;;;;9.87;6.03;;;;;;;7.14;70.63;95636.41;1683584;84;21198;-68
2021/04/13 02:07:05;;;;;;;9.80;5.63;;;;;;;7.05;70.03;95637.75;1706173;84;21165;-68
2021/04/13 02:09:57;;;;;;;9.80;5.70;;;;;;;6.98;69.80;95637.79;1698878;84;21150;-68
2021/04/13 02:12:30;;;;;;;12.17;5.93;;;;;;;6.98;70.78;95634.75;1699205;83;21145;-68
2021/04/13 02:15:19;;;;;;;8.83;5.20;;;;;;;6.99;70.84;95629.92;1714046;84;22206;-68
2021/04/13 02:17:55;;;;;;;11.20;5.10;;;;;;;6.94;70.83;95627.31;1704996;84;21202;-68
2021/04/13 02:20:31;;;;;;;12.87;7.33;;;;;;;6.90;71.04;95628.64;1674157;84;21193;-68
2021/04/13 02:23:07;;;;;;;30.43;6.90;;;;;;;6.98;70.54;95622.95;1780535;79;22909;-67
2021/04/13 02:25:38;;;;;;;19.23;6.33;;;;;;;6.99;71.33;95623.81;1724596;82;21328;-67
2021/04/13 02:28:09;;;;;;;12.53;6.13;;;;;;;7.00;72.17;95622.47;1754087;82;21129;-67
2021/04/13 02:30:41;;;;;;;9.83;5.33;;;;;;;6.99;72.52;95622.05;1754162;81;21113;-67
2021/04/13 02:33:35;;;;;;;11.33;4.57;;;;;;;7.06;71.12;95620.28;1754000;81;21145;-67
2021/04/13 02:36:26;;;;;;;38.77;12.33;;;;;;;7.07;71.29;95614.14;1753867;82;21142;-67
2021/04/13 02:38:55;;;;;;;16.33;7.33;;;;;;;7.06;70.82;95612.41;1753746;82;21583;-67
2021/04/13 02:41:30;;;;;;;11.13;5.27;;;;;;;7.05;71.37;95604.95;1753850;82;21129;-68
2021/04/13 02:44:06;;;;;;;12.73;5.53;;;;;;;7.04;71.04;95599.74;1754001;81;21118;-67
2021/04/13 02:46:36;;;;;;;11.40;5.37;;;;;;;7.04;71.39;95606.30;1754298;82;21141;-67
2021/04/13 02:49:14;;;;;;;10.37;5.20;;;;;;;7.11;70.80;95601.02;1724509;82;21153;-67
2021/04/13 02:51:55;;;;;;;7.30;4.33;;;;;;;7.15;70.45;95599.23;1753997;81;21142;-67
2021/04/13 02:54:37;;;;;;;8.03;4.67;;;;;;;7.06;71.14;95601.92;1744775;82;21144;-67
2021/04/13 02:57:13;;;;;;;7.63;4.37;;;;;;;7.06;70.68;95598.85;1753790;81;21153;-67
2021/04/13 02:59:41;;;;;;;13.30;5.80;;;;;;;6.92;71.03;95597.59;1754146;82;21118;-67
2021/04/13 03:02:38;;;;;;;11.20;5.27;;;;;;;6.94;71.20;95594.97;1754004;82;21142;-67
2021/04/13 03:05:09;;;;;;;16.10;5.63;;;;;;;6.97;70.63;95598.89;1753741;81;21145;-67
2021/04/13 03:07:39;;;;;;;8.83;5.40;;;;;;;6.96;70.56;95604.16;1725140;82;21152;-67
2021/04/13 03:10:11;;;;;;;8.70;4.70;;;;;;;7.02;69.99;95602.36;1753751;82;21118;-67
2021/04/13 03:12:44;;;;;;;8.17;4.50;;;;;;;7.03;70.45;95600.59;1754771;82;21268;-67
2021/04/13 03:15:20;;;;;;;8.08;4.87;;;;;;;6.99;70.56;95595.82;1753537;82;21607;-67
2021/04/13 03:17:54;;;;;;;6.07;3.60;;;;;;;6.87;69.85;95590.63;1753795;82;21133;-67
2021/04/13 03:20:29;;;;;;;14.47;6.45;;;;;;;6.85;70.16;95596.31;1754365;81;21117;-67
2021/04/13 03:23:00;;;;;;;12.33;5.70;;;;;;;6.75;69.99;95588.91;1754546;81;21686;-67
2021/04/13 03:25:32;;;;;;;20.47;10.40;;;;;;;6.70;70.08;95592.89;1754693;82;21146;-67
2021/04/13 03:28:04;;;;;;;9.45;4.30;;;;;;;6.61;71.44;95589.42;1755115;82;21694;-67
2021/04/13 03:30:37;;;;;;;12.63;4.47;;;;;;;6.57;71.02;95592.92;1754375;82;21267;-68
2021/04/13 03:33:19;;;;;;;10.08;4.58;;;;;;;6.56;70.65;95591.19;1754723;82;21533;-67
2021/04/13 03:36:12;;;;;;;9.67;4.93;;;;;;;6.53;73.53;95584.62;1820163;79;22802;-68
2021/04/13 03:38:40;;;;;;;7.50;4.17;;;;;;;6.49;72.23;95583.77;1793296;80;21136;-68
2021/04/13 03:41:18;;;;;;;9.70;5.10;;;;;;;6.52;73.12;95585.52;1763132;80;21527;-68
2021/04/13 03:43:51;;;;;;;10.77;4.07;;;;;;;6.58;72.04;95592.06;1793578;80;21113;-68
2021/04/13 03:46:18;;;;;;;8.25;4.47;;;;;;;6.63;71.49;95581.13;1793284;80;21129;-68
2021/04/13 03:48:49;;;;;;;8.17;3.80;;;;;;;6.64;71.84;95584.16;1793499;80;21148;-68
2021/04/13 03:51:33;;;;;;;8.40;3.97;;;;;;;6.70;71.42;95584.12;1793732;80;21547;-68
2021/04/13 03:54:19;;;;;;;14.00;7.43;;;;;;;6.71;70.97;95585.45;1793327;80;21144;-68
2021/04/13 03:56:48;;;;;;;11.57;4.80;;;;;;;6.68;72.09;95585.91;1792642;80;21247;-67
2021/04/13 03:59:23;;;;;;;10.70;5.23;;;;;;;6.74;72.05;95582.38;1793610;80;21283;-68
2021/04/13 04:01:52;;;;;;;13.47;6.23;;;;;;;6.80;72.41;95587.59;1793601;80;21709;-67
2021/04/13 04:04:36;;;;;;;10.03;4.40;;;;;;;6.84;73.09;95584.09;1793531;80;21156;-68
2021/04/13 04:07:35;;;;;;;11.67;5.23;;;;;;;6.87;73.26;95589.31;1793673;80;21667;-68
2021/04/13 04:10:01;;;;;;;35.40;16.37;;;;;;;6.89;73.27;95592.81;1793381;80;21610;-68
2021/04/13 04:12:31;;;;;;;8.43;4.57;;;;;;;6.97;72.34;95584.91;1793596;80;21587;-68
2021/04/13 04:15:10;;;;;;;7.60;4.27;;;;;;;7.09;72.04;95594.03;1793593;80;21283;-68
2021/04/13 04:17:48;;;;;;;7.07;4.60;;;;;;;7.24;71.72;95590.45;1793687;80;21282;-67
2021/04/13 04:20:16;;;;;;;7.63;4.90;;;;;;;7.32;71.79;95589.96;1793605;80;21275;-68
2021/04/13 04:22:51;;;;;;;10.90;5.60;;;;;;;7.49;71.70;95592.04;1793434;80;21167;-68
2021/04/13 04:25:48;;;;;;;12.63;6.87;;;;;;;7.59;70.91;95592.86;1793464;80;21680;-67
2021/04/13 04:28:26;;;;;;;10.37;4.10;;;;;;;7.62;71.00;95593.27;1793502;80;21595;-68
2021/04/13 04:30:54;;;;;;;8.17;4.80;;;;;;;7.67;70.67;95594.11;1793545;80;21263;-68
2021/04/13 04:33:38;;;;;;;11.33;4.87;;;;;;;7.73;70.93;95592.73;1763191;80;21157;-68
2021/04/13 04:36:34;;;;;;;6.57;3.90;;;;;;;7.87;70.46;95586.08;1780422;80;21138;-68
2021/04/13 04:39:29;;;;;;;7.97;4.27;;;;;;;7.89;70.50;95583.87;1779347;80;21619;-68
2021/04/13 04:42:10;;;;;;;22.93;13.77;;;;;;;7.85;70.74;95593.09;1779947;81;21555;-68
2021/04/13 04:44:36;;;;;;;25.83;13.97;;;;;;;7.84;71.62;95591.33;1779862;81;21122;-68
2021/04/13 04:47:31;;;;;;;15.23;6.70;;;;;;;7.85;72.30;95599.66;1779385;81;21260;-68
2021/04/13 04:49:59;;;;;;;6.90;4.33;;;;;;;7.90;71.62;95597.87;1779290;81;21272;-68
2021/04/13 04:52:27;;;;;;;9.73;4.97;;;;;;;7.94;72.36;95602.22;1779547;81;21133;-68
2021/04/13 04:54:55;;;;;;;14.10;8.93;;;;;;;7.97;71.52;95601.74;1779143;81;21315;-68
2021/04/13 04:57:23;;;;;;;40.60;20.17;;;;;;;7.96;70.96;95600.43;1779370;81;21283;-68
2021/04/13 04:59:52;;;;;;;36.83;19.27;;;;;;;7.91;72.29;95604.85;1779094;81;21583;-68
2021/04/13 05:02:20;;;;;;;37.53;20.00;;;;;;;7.86;73.42;95611.48;1779552;81;21110;-68
2021/04/13 05:04:48;;;;;;;38.80;19.67;;;;;;;7.88;72.51;95607.51;1779405;80;21117;-68
2021/04/13 05:07:15;;;;;;;37.73;19.53;;;;;;;7.89;72.69;95602.70;1779348;80;21296;-68
2021/04/13 05:09:42;;;;;;;34.20;19.17;;;;;;;7.94;71.77;95599.59;1779152;81;21684;-68
2021/04/13 05:12:11;;;;;;;40.33;21.00;;;;;;;7.94;71.30;95604.41;1779824;81;21098;-68
2021/04/13 05:14:39;;;;;;;37.77;21.07;;;;;;;7.92;72.04;95599.59;1779299;81;21273;-68
2021/04/13 05:17:06;;;;;;;77.53;39.30;;;;;;;7.96;71.87;95601.74;1779651;80;21176;-68
2021/04/13 05:19:34;;;;;;;87.73;51.20;;;;;;;7.98;71.29;95602.61;1779342;81;21729;-68
2021/04/13 05:22:01;;;;;;;82.97;47.93;;;;;;;8.00;71.78;95603.47;1779320;81;21276;-68
2021/04/13 05:24:29;;;;;;;79.63;41.87;;;;;;;8.10;70.65;95601.64;1779205;81;21141;-68
2021/04/13 05:26:57;;;;;;;41.63;26.70;;;;;;;8.18;70.69;95607.69;1779493;81;21153;-68
2021/04/13 05:29:24;;;;;;;33.97;20.20;;;;;;;8.21;71.78;95603.72;1779505;81;21145;-68
2021/04/13 05:31:52;;;;;;;24.03;14.90;;;;;;;8.24;71.83;95605.89;1757838;81;21133;-68
2021/04/13 05:34:20;;;;;;;34.40;18.97;;;;;;;8.33;71.28;95609.31;1779859;80;21145;-68
2021/04/13 05:36:52;;;;;;;31.00;19.13;;;;;;;8.40;70.57;95609.27;1785021;80;21137;-69
2021/04/13 05:39:21;;;;;;;25.10;17.10;;;;;;;8.49;69.93;95602.16;1784953;80;21272;-68
2021/04/13 05:41:49;;;;;;;30.10;18.87;;;;;;;8.55;69.15;95608.70;1785109;80;21271;-68
2021/04/13 05:44:20;;;;;;;43.80;21.87;;;;;;;8.60;69.21;95608.20;1785423;80;21137;-68
2021/04/13 05:46:49;;;;;;;42.90;22.03;;;;;;;8.64;68.69;95602.89;1785296;80;21121;-68
2021/04/13 05:49:18;;;;;;;43.93;21.90;;;;;;;8.68;68.33;95600.22;1785265;80;21145;-68
2021/04/13 05:51:47;;;;;;;41.63;22.07;;;;;;;8.73;68.93;95602.36;1756932;80;21149;-68
2021/04/13 05:54:14;;;;;;;31.33;16.60;;;;;;;8.79;68.70;95603.14;1785324;80;21149;-68
2021/04/13 05:56:44;;;;;;;26.57;15.50;;;;;;;8.87;68.35;95593.42;1785057;80;21706;-68
2021/04/13 05:59:14;;;;;;;19.87;11.47;;;;;;;8.93;67.46;95590.28;1784967;80;21279;-68
2021/04/13 06:01:48;;;;;;;21.30;10.40;;;;;;;8.98;67.35;95587.16;1785315;80;21533;-68
2021/04/13 06:04:13;;;;;;;17.20;10.60;;;;;;;9.03;67.59;95590.14;1784641;80;21121;-68
2021/04/13 06:06:42;;;;;;;16.80;9.93;;;;;;;9.11;67.54;95593.99;1785060;80;21248;-68
2021/04/13 06:09:11;;;;;;;23.17;10.70;;;;;;;9.18;67.20;95589.53;1785352;80;21157;-68
2021/04/13 06:11:38;;;;;;;12.70;6.40;;;;;;;9.26;67.05;95591.16;1785018;80;21284;-68
2021/04/13 06:14:08;;;;;;;19.37;11.33;;;;;;;9.35;66.04;95591.91;1784983;80;21307;-68
2021/04/13 06:16:39;;;;;;;27.23;14.03;;;;;;;9.35;64.85;95587.55;1785241;80;21159;-68
2021/04/13 06:19:09;;;;;;;36.67;18.10;;;;;;;9.37;65.87;95587.50;1785413;80;21121;-68
2021/04/13 06:21:37;;;;;;;36.07;18.33;;;;;;;9.47;66.63;95584.70;1785059;80;21548;-68
2021/04/13 06:24:06;;;;;;;22.10;11.90;;;;;;;9.56;66.60;95591.62;1785053;80;21283;-68
2021/04/13 06:26:34;;;;;;;43.27;22.00;;;;;;;9.64;66.52;95597.64;1785103;80;21124;-68
2021/04/13 06:29:04;;;;;;;42.83;21.53;;;;;;;9.71;66.56;95594.48;1785398;80;21128;-68
2021/04/13 06:31:32;;;;;;;37.23;19.43;;;;;;;9.81;66.37;95594.76;1785075;80;21310;-68
2021/04/13 06:33:59;;;;;;;33.33;18.53;;;;;;;10.00;66.31;95587.41;1784994;80;21271;-68
2021/04/13 06:36:29;;;;;;;25.13;14.03;;;;;;;10.17;66.13;95584.05;1780186;80;21296;-68
2021/04/13 06:38:58;;;;;;;26.40;13.27;;;;;;;10.25;65.96;95572.05;1779467;81;21673;-68
2021/04/13 06:42:07;;;;;;;20.07;12.10;;;;;;;10.36;66.04;95586.41;1779138;81;21723;-68
2021/04/13 06:45:06;;;;;;;21.10;13.07;;;;;;;10.52;64.66;95577.77;1757566;81;21157;-68
2021/04/13 06:48:12;;;;;;;23.90;13.13;;;;;;;10.67;64.33;95573.97;1757442;81;21280;-68
2021/04/13 06:51:29;;;;;;;22.90;11.93;;;;;;;10.83;63.18;95579.35;1779354;80;21172;-68
2021/04/13 06:54:14;;;;;;;15.43;8.97;;;;;;;10.88;62.27;95572.67;1722987;83;21593;-68
2021/04/13 06:57:05;;;;;;;19.17;10.60;;;;;;;10.97;62.98;95579.09;1775304;80;21264;-68
2021/04/13 07:00:06;;;;;;;22.67;11.97;;;;;;;11.09;62.22;95583.23;1779255;80;21579;-68
2021/04/13 07:03:11;;;;;;;21.00;11.10;;;;;;;11.38;61.98;95575.56;1824249;77;22409;-68
2021/04/13 07:05:47;;;;;;;28.37;12.63;;;;;;;11.50;62.04;95576.20;1828289;78;21270;-68
2021/04/13 07:08:44;;;;;;;28.27;17.10;;;;;;;11.62;60.41;95567.55;1760913;81;21117;-68
2021/04/13 07:11:32;;;;;;;29.13;17.03;;;;;;;11.75;59.90;95573.41;1792589;80;21141;-68
2021/04/13 07:14:30;;;;;;;25.43;14.03;;;;;;;11.85;60.76;95567.00;1760959;81;21128;-68
2021/04/13 07:17:05;;;;;;;34.10;17.70;;;;;;;11.94;60.82;95571.22;1791853;80;21275;-68
2021/04/13 07:19:47;;;;;;;29.90;13.67;;;;;;;12.01;60.51;95579.42;1770734;81;21124;-68
2021/04/13 07:22:26;;;;;;;33.17;13.93;;;;;;;12.03;59.60;95574.97;1770546;81;21302;-68
2021/04/13 07:25:08;;;;;;;26.80;12.13;;;;;;;12.05;59.89;95579.77;1735570;81;21590;-68
2021/04/13 07:27:51;;;;;;;33.87;12.77;;;;;;;12.04;58.81;95576.70;1750064;81;21539;-68
2021/04/13 07:30:34;;;;;;;33.70;13.10;;;;;;;12.08;59.36;95577.50;1770884;81;21267;-68
2021/04/13 07:33:03;;;;;;;32.03;14.10;;;;;;;12.13;59.01;95572.97;1770678;81;21262;-68
2021/04/13 07:35:39;;;;;;;33.30;15.10;;;;;;;12.16;57.93;95575.53;1771052;81;21172;-68
2021/04/13 07:38:17;;;;;;;33.83;15.33;;;;;;;12.23;58.15;95573.16;1770568;81;21275;-68
2021/04/13 07:40:50;;;;;;;31.53;15.43;;;;;;;12.32;57.91;95574.68;1770714;81;21575;-68
2021/04/13 07:43:31;;;;;;;28.70;15.43;;;;;;;12.44;58.05;95575.69;1770547;81;21279;-68
2021/04/13 07:46:13;;;;;;;38.40;15.63;;;;;;;12.55;58.39;95572.78;1770711;81;21148;-68
2021/04/13 07:49:14;;;;;;;30.23;14.90;;;;;;;12.72;58.40;95574.48;1770959;81;21136;-68
2021/04/13 07:52:17;;;;;;;43.67;13.83;;;;;;;12.82;56.23;95561.88;1770786;81;21153;-68
2021/04/13 07:55:10;;;;;;;27.67;10.37;;;;;;;12.93;56.29;95571.73;1771049;81;21125;-68
2021/04/13 07:57:51;;;;;;;28.80;9.93;;;;;;;12.95;54.00;95574.31;1771206;81;21120;-68
2021/04/13 08:00:28;;;;;;;20.77;8.20;;;;;;;12.97;53.43;95568.06;1766653;81;21721;-68
2021/04/13 08:03:22;;;;;;;16.30;8.63;;;;;;;13.03;52.37;95568.37;1748548;81;21129;-68
2021/04/13 08:06:05;;;;;;;20.12;8.90;;;;;;;13.05;50.84;95563.00;1748134;82;21572;-68
2021/04/13 08:08:39;;;;;;;;;;;;;;;13.08;50.73;95558.94;1738746;83;21151;-68
2021/04/13 08:11:11;;;;;;;22.55;9.95;;;;;;;13.12;50.11;95555.30;1747429;82;20134;-68
2021/04/13 08:13:46;;;;;;;16.57;9.60;;;;;;;13.15;50.21;95553.88;1731911;83;21151;-68
2021/04/13 08:16:34;;;;;;;21.73;9.53;;;;;;;13.17;48.69;95552.92;1735598;83;21155;-68
2021/04/13 08:19:31;;;;;;;20.07;9.13;;;;;;;13.21;49.39;95551.92;1735492;83;21168;-68
2021/04/13 08:22:16;;;;;;;18.63;8.17;;;;;;;13.23;49.00;95557.20;1735451;83;21127;-68
2021/04/13 08:24:53;;;;;;;17.53;8.40;;;;;;;13.23;49.01;95573.09;1765810;81;21577;-68
2021/04/13 08:27:35;;;;;;;17.27;7.83;;;;;;;13.23;49.03;95570.44;1746483;82;21133;-68
2021/04/13 08:30:26;;;;;;;15.90;8.03;;;;;;;13.23;49.02;95576.17;1735454;83;21143;-68
2021/04/13 08:33:11;;;;;;;19.33;7.80;;;;;;;13.25;48.43;95581.84;1735659;83;21148;-68
2021/04/13 08:35:44;;;;;;;14.13;8.13;;;;;;;13.33;48.34;95578.56;1734562;83;21132;-69
2021/04/13 08:38:20;;;;;;;15.78;7.85;;;;;;;13.45;48.53;95579.95;1732569;83;21108;-68
2021/04/13 08:41:04;;;;;;;14.60;7.97;;;;;;;13.59;48.09;95583.06;1725220;83;21200;-68
2021/04/13 08:43:50;;;;;;;14.53;6.87;;;;;;;13.77;48.10;95580.30;1735631;83;21132;-68
2021/04/13 08:46:35;;;;;;;18.17;7.70;;;;;;;13.91;47.60;95571.03;1735256;83;21123;-68
2021/04/13 08:49:13;;;;;;;16.77;7.85;;;;;;;14.06;47.33;95572.75;1735755;83;21123;-68
2021/04/13 08:51:48;;;;;;;20.30;8.23;;;;;;;14.20;47.46;95563.00;1735627;83;21131;-68
2021/04/13 08:54:29;;;;;;;19.10;7.83;;;;;;;14.37;47.55;95565.56;1735441;83;21538;-68
2021/04/13 08:57:21;;;;;;;12.40;7.40;;;;;;;14.53;46.91;95560.59;1765473;81;21127;-68
2021/04/13 08:59:57;;;;;;;15.53;8.03;;;;;;;14.64;45.95;95558.44;1746948;82;21106;-68
2021/04/13 09:02:33;;;;;;;15.77;8.37;;;;;;;14.70;45.64;95561.77;1749910;81;21149;-68
2021/04/13 09:05:15;;;;;;;14.10;6.87;;;;;;;14.73;45.53;95558.13;1770060;81;21121;-68
2021/04/13 09:07:54;;;;;;;17.07;7.30;;;;;;;14.78;46.55;95554.84;1758574;81;21137;-68
2021/04/13 09:10:39;;;;;;;17.37;8.03;;;;;;;14.75;45.07;95560.74;1758723;81;21108;-69
2021/04/13 09:13:29;;;;;;;17.20;7.43;;;;;;;14.69;46.20;95563.13;1757112;81;21102;-68
2021/04/13 09:16:11;;;;;;;13.23;6.47;;;;;;;14.63;46.57;95567.34;1758431;81;21563;-68
2021/04/13 09:18:59;;;;;;;22.63;8.93;;;;;;;14.52;46.72;95565.03;1787139;80;21113;-68
2021/04/13 09:21:44;;;;;;;17.43;7.97;;;;;;;14.49;46.08;95567.80;1769942;81;21153;-69
2021/04/13 09:24:41;;;;;;;21.50;9.67;;;;;;;14.45;46.78;95572.33;1770000;81;21136;-68
2021/04/13 09:27:44;;;;;;;18.07;8.50;;;;;;;14.46;47.16;95571.86;1757868;81;21160;-68
2021/04/13 09:30:31;;;;;;;21.97;9.33;;;;;;;14.50;46.88;95569.52;1760539;81;21207;-68
2021/04/13 09:33:22;;;;;;;23.77;10.27;;;;;;;14.54;47.16;95571.20;1770189;81;21579;-68
2021/04/13 09:36:14;;;;;;;15.73;8.37;;;;;;;14.65;47.25;95569.49;1770318;81;21287;-68
2021/04/13 09:38:59;;;;;;;22.00;9.40;;;;;;;14.69;46.21;95569.77;1770110;81;21164;-68
2021/04/13 09:42:24;;;;;;;16.27;7.60;;;;;;;14.72;45.90;95561.72;1769967;81;21139;-68
2021/04/13 09:45:11;;;;;;;13.37;7.90;;;;;;;14.71;45.28;95562.16;1758518;81;21622;-68
2021/04/13 09:47:56;;;;;;;21.37;9.17;;;;;;;14.74;45.70;95561.21;1789279;80;21690;-68
2021/04/13 09:50:47;;;;;;;18.13;9.00;;;;;;;14.73;46.30;95558.59;1769817;81;21598;-69
2021/04/13 09:53:50;;;;;;;19.27;9.63;;;;;;;14.71;46.29;95566.14;1769979;81;21598;-68
2021/04/13 09:56:47;;;;;;;16.00;8.13;;;;;;;14.67;46.25;95561.02;1758268;81;21152;-68
2021/04/13 09:59:26;;;;;;;17.57;7.50;;;;;;;14.69;46.47;95566.68;1770038;81;21614;-68
2021/04/13 10:02:22;;;;;;;17.53;7.73;;;;;;;14.72;48.46;95559.06;1752906;81;21158;-68
2021/04/13 10:05:00;;;;;;;19.63;7.47;;;;;;;14.71;47.58;95564.81;1780352;80;21142;-68
2021/04/13 10:07:47;;;;;;;18.97;7.60;;;;;;;14.68;47.24;95557.42;1756691;82;21098;-68
2021/04/13 10:10:31;;;;;;;17.30;8.60;;;;;;;14.74;47.07;95561.64;1749214;82;21145;-68
2021/04/13 10:13:40;;;;;;;15.40;8.23;;;;;;;14.74;47.15;95559.88;1723102;82;21118;-68
2021/04/13 10:16:41;;;;;;;18.17;8.63;;;;;;;14.67;47.14;95552.58;1667529;86;21136;-68
2021/04/13 10:19:20;;;;;;;17.37;8.10;;;;;;;14.71;47.22;95555.52;1732131;82;21599;-68
2021/04/13 10:22:28;;;;;;;19.30;8.87;;;;;;;14.78;48.46;95557.97;1818454;79;21149;-69
2021/04/13 10:25:07;;;;;;;17.43;9.27;;;;;;;14.88;48.19;95554.92;1819082;78;21125;-68
2021/04/13 10:28:19;;;;;;;18.13;9.73;;;;;;;14.91;47.35;95560.12;1818450;79;21120;-69
2021/04/13 10:31:17;;;;;;;15.03;9.50;;;;;;;14.92;46.13;95552.58;1814132;78;21144;-69
2021/04/13 10:34:28;;;;;;;16.37;9.03;;;;;;;14.99;47.63;95546.55;1819239;78;21120;-68
2021/04/13 10:37:19;;;;;;;17.93;7.33;;;;;;;15.02;47.71;95549.13;1819266;78;21129;-68
2021/04/13 10:40:01;;;;;;;19.03;9.57;;;;;;;15.09;48.43;95542.66;1780295;80;21571;-68
2021/04/13 10:42:40;;;;;;;16.10;8.87;;;;;;;15.20;47.56;95540.06;1780545;80;21153;-68
2021/04/13 10:45:47;;;;;;;17.80;8.67;;;;;;;15.28;47.57;95537.98;1722340;82;21176;-68
2021/04/13 10:48:41;;;;;;;18.20;9.13;;;;;;;15.29;48.28;95533.91;1749578;82;21161;-69
2021/04/13 10:51:28;;;;;;;17.17;9.70;;;;;;;15.39;48.17;95537.56;1756014;82;21145;-69
2021/04/13 10:54:37;;;;;;;18.37;9.40;;;;;;;15.38;48.15;95526.06;1748555;82;21165;-69
2021/04/13 10:57:40;;;;;;;20.60;9.07;;;;;;;15.29;47.65;95532.59;1747419;82;21590;-69
2021/04/13 11:00:30;;;;;;;14.40;8.17;;;;;;;15.18;48.86;95533.47;1749477;82;21133;-69
2021/04/13 11:03:03;;;;;;;17.33;9.13;;;;;;;15.09;49.70;95528.05;1733989;81;21136;-69
2021/04/13 11:06:16;;;;;;;28.60;14.97;;;;;;;15.30;49.52;95526.83;1756496;81;21140;-69
2021/04/13 11:09:28;;;;;;;25.63;13.43;;;;;;;15.46;49.73;95516.46;1749359;82;21571;-69
2021/04/13 11:12:33;;;;;;;20.77;11.90;;;;;;;15.58;50.36;95512.86;1819421;79;21267;-69
2021/04/13 11:15:35;;;;;;;21.03;8.93;;;;;;;15.84;50.59;95511.45;1749248;82;21109;-69
2021/04/13 11:18:36;;;;;;;16.97;8.20;;;;;;;15.91;50.70;95512.46;1756777;82;21153;-69
2021/04/13 11:21:32;;;;;;;23.13;9.43;;;;;;;16.08;51.16;95510.45;1733659;82;21160;-69
2021/04/13 11:24:14;;;;;;;18.83;8.40;;;;;;;16.31;51.11;95502.83;1734315;83;21294;-69
2021/04/13 11:27:11;;;;;;;16.47;8.67;;;;;;;16.37;49.17;95502.55;1756501;82;21148;-69
2021/04/13 11:29:48;;;;;;;11.77;8.13;;;;;;;16.25;49.95;95501.73;1749406;82;21567;-69
2021/04/13 11:32:57;;;;;;;15.47;8.17;;;;;;;15.88;50.41;95496.63;1753879;82;21595;-69
2021/04/13 11:35:45;;;;;;;16.70;7.93;;;;;;;15.79;49.91;95492.53;1749558;82;21105;-69
2021/04/13 11:38:49;;;;;;;18.17;8.30;;;;;;;15.66;50.59;95493.08;1756687;82;21105;-69
2021/04/13 11:41:28;;;;;;;14.77;8.17;;;;;;;15.69;50.77;95480.53;1749634;82;21189;-69
2021/04/13 11:44:00;;;;;;;14.20;7.60;;;;;;;15.73;50.32;95479.50;1778828;80;21117;-69
2021/04/13 11:46:33;;;;;;;15.93;8.23;;;;;;;15.79;50.62;95475.24;1756685;82;21162;-69
2021/04/13 11:49:21;;;;;;;18.07;7.97;;;;;;;15.84;50.81;95475.06;1747322;82;21843;-69
2021/04/13 11:51:59;;;;;;;12.93;7.83;;;;;;;15.77;50.34;95469.58;1744270;82;21145;-69
2021/04/13 11:54:49;;;;;;;16.17;8.17;;;;;;;15.80;51.30;95466.83;1749983;82;21138;-69
2021/04/13 11:57:33;;;;;;;18.47;8.93;;;;;;;15.97;50.29;95464.77;1756601;82;21553;-69
2021/04/13 12:00:21;;;;;;;17.33;8.80;;;;;;;15.95;50.21;95460.86;1749991;82;21148;-69
2021/04/13 12:03:23;;;;;;;13.63;7.77;;;;;;;16.00;50.48;95454.88;1752609;82;21165;-69
2021/04/13 12:05:57;;;;;;;17.37;8.20;;;;;;;16.12;50.88;95457.94;1735660;82;21148;-69
2021/04/13 12:08:33;;;;;;;20.73;9.33;;;;;;;16.04;49.40;95452.94;1746938;82;21102;-69
2021/04/13 12:11:05;;;;;;;19.70;9.37;;;;;;;16.15;49.68;95446.72;1735358;83;21128;-69
2021/04/13 12:13:44;;;;;;;12.37;7.20;;;;;;;16.35;49.93;95449.81;1746203;82;21618;-69
2021/04/13 12:16:38;;;;;;;14.20;7.67;;;;;;;16.73;50.16;95441.96;1735427;83;21147;-69
2021/04/13 12:19:11;;;;;;;15.32;7.20;;;;;;;17.20;47.92;95436.25;1663822;86;21262;-69
2021/04/13 12:21:58;;;;;;;14.43;6.95;;;;;;;17.91;47.46;95435.05;1648884;87;21149;-69
2021/04/13 12:24:45;;;;;;;15.35;7.12;;;;;;;18.28;45.12;95432.34;1695074;83;21175;-69
2021/04/13 12:27:38;;;;;;;14.28;6.90;;;;;;;18.52;43.64;95431.52;1747048;82;21137;-69
2021/04/13 12:30:29;;;;;;;18.65;6.20;;;;;;;18.63;42.90;95432.31;1735455;83;21108;-69
2021/04/13 12:32:57;;;;;;;15.05;7.12;;;;;;;18.54;44.74;95426.48;1746991;82;21137;-69
2021/04/13 12:35:55;;;;;;;15.60;7.10;;;;;;;18.65;43.33;95420.59;1735411;83;21143;-69
2021/04/13 12:38:47;;;;;;;15.53;7.05;;;;;;;18.73;43.94;95417.03;1734687;82;21153;-69
2021/04/13 12:41:35;;;;;;;15.55;7.10;;;;;;;18.94;42.20;95400.81;1735410;83;21148;-69
2021/04/13 12:44:18;;;;;;;12.25;7.67;;;;;;;18.66;41.57;95400.93;1746823;82;21170;-69
2021/04/13 12:46:52;;;;;;;15.00;7.60;;;;;;;18.25;42.88;95402.65;1735438;83;21147;-69